sensor_id;sensor_type;location;lat;lon;timestamp;temperature;humidity
41471;DHT22;27211;51.220;5.308;2024-01-30T08:11:03;11.50;99.90
41471;DHT22;27211;51.220;5.308;2024-01-30T08:13:28;11.50;99.90
41471;DHT22;27211;51.220;5.308;2024-01-30T08:15:54;11.50;99.90
41471;DHT22;27211;51.220;5.308;2024-01-30T08:18:19;11.60;99.90
41471;DHT22;27211;51.220;5.308;2024-01-30T08:20:45;11.60;99.90
41471;DHT22;27211;51.220;5.308;2024-01-30T08:23:11;11.70;99.90
41471;DHT22;27211;51.220;5.308;2024-01-30T08:25:36;11.70;99.90
41471;DHT22;27211;51.220;5.308;2024-01-30T08:28:02;11.70;99.90
41471;DHT22;27211;51.220;5.308;2024-01-30T08:30:28;11.60;99.90
41471;DHT22;27211;51.220;5.308;2024-01-30T08:32:53;11.60;99.90
41471;DHT22;27211;51.220;5.308;2024-01-30T08:35:19;11.70;99.90
41471;DHT22;27211;51.220;5.308;2024-01-30T08:37:45;11.70;99.90
41471;DHT22;27211;51.220;5.308;2024-01-30T08:40:10;11.90;99.90
41471;DHT22;27211;51.220;5.308;2024-01-30T08:42:39;12.10;99.90
41471;DHT22;27211;51.220;5.308;2024-01-30T08:45:05;12.10;99.90
41471;DHT22;27211;51.220;5.308;2024-01-30T08:47:30;12.30;99.90
41471;DHT22;27211;51.220;5.308;2024-01-30T08:49:56;12.20;99.90
41471;DHT22;27211;51.220;5.308;2024-01-30T08:52:22;12.30;99.90
41471;DHT22;27211;51.220;5.308;2024-01-30T08:54:47;12.50;99.90
41471;DHT22;27211;51.220;5.308;2024-01-30T08:57:13;12.30;99.90
41471;DHT22;27211;51.220;5.308;2024-01-30T08:59:38;12.30;99.90
41471;DHT22;27211;51.220;5.308;2024-01-30T09:02:04;12.50;99.90
41471;DHT22;27211;51.220;5.308;2024-01-30T09:04:30;12.40;99.90
41471;DHT22;27211;51.220;5.308;2024-01-30T09:06:56;12.50;99.90
41471;DHT22;27211;51.220;5.308;2024-01-30T09:09:22;12.60;99.90
41471;DHT22;27211;51.220;5.308;2024-01-30T09:11:47;12.60;99.90
41471;DHT22;27211;51.220;5.308;2024-01-30T09:14:13;12.60;99.90
41471;DHT22;27211;51.220;5.308;2024-01-30T09:16:38;12.80;99.90
41471;DHT22;27211;51.220;5.308;2024-01-30T09:19:04;12.70;99.90
41471;DHT22;27211;51.220;5.308;2024-01-30T09:21:30;12.70;99.90
41471;DHT22;27211;51.220;5.308;2024-01-30T09:24:01;12.70;99.90
41471;DHT22;27211;51.220;5.308;2024-01-30T09:26:27;12.80;99.90
41471;DHT22;27211;51.220;5.308;2024-01-30T09:28:52;12.80;99.90
41471;DHT22;27211;51.220;5.308;2024-01-30T09:31:18;12.60;99.90
41471;DHT22;27211;51.220;5.308;2024-01-30T09:33:43;12.60;99.90
41471;DHT22;27211;51.220;5.308;2024-01-30T09:36:12;12.70;99.90
41471;DHT22;27211;51.220;5.308;2024-01-30T09:38:40;12.60;99.90
41471;DHT22;27211;51.220;5.308;2024-01-30T09:41:07;12.70;99.90
41471;DHT22;27211;51.220;5.308;2024-01-30T09:43:37;12.90;99.90
41471;DHT22;27211;51.220;5.308;2024-01-30T09:46:03;12.80;99.90
41471;DHT22;27211;51.220;5.308;2024-01-30T09:48:30;12.90;99.90
41471;DHT22;27211;51.220;5.308;2024-01-30T09:50:57;12.80;99.90
41471;DHT22;27211;51.220;5.308;2024-01-30T09:53:23;12.70;99.90
41471;DHT22;27211;51.220;5.308;2024-01-30T09:55:49;12.80;99.90
41471;DHT22;27211;51.220;5.308;2024-01-30T09:58:16;13.10;99.90
41471;DHT22;27211;51.220;5.308;2024-01-30T10:00:41;13.00;99.90
41471;DHT22;27211;51.220;5.308;2024-01-30T10:03:08;13.20;99.90
41471;DHT22;27211;51.220;5.308;2024-01-30T10:05:34;13.20;99.90
41471;DHT22;27211;51.220;5.308;2024-01-30T10:08:00;13.30;99.90
41471;DHT22;27211;51.220;5.308;2024-01-30T10:10:26;13.30;99.90
41471;DHT22;27211;51.220;5.308;2024-01-30T10:12:51;13.30;99.90
41471;DHT22;27211;51.220;5.308;2024-01-30T10:15:17;13.50;99.90
41471;DHT22;27211;51.220;5.308;2024-01-30T10:17:44;13.30;99.90
41471;DHT22;27211;51.220;5.308;2024-01-30T10:20:09;13.20;99.90
41471;DHT22;27211;51.220;5.308;2024-01-30T10:22:36;13.10;99.90
41471;DHT22;27211;51.220;5.308;2024-01-30T10:25:02;13.00;99.90
41471;DHT22;27211;51.220;5.308;2024-01-30T10:27:28;12.90;99.90
41471;DHT22;27211;51.220;5.308;2024-01-30T10:29:55;12.90;99.90
41471;DHT22;27211;51.220;5.308;2024-01-30T10:32:21;12.90;99.90
41471;DHT22;27211;51.220;5.308;2024-01-30T10:34:47;12.90;99.90
41471;DHT22;27211;51.220;5.308;2024-01-30T10:37:12;13.10;99.90
41471;DHT22;27211;51.220;5.308;2024-01-30T10:39:41;13.10;99.90
41471;DHT22;27211;51.220;5.308;2024-01-30T10:42:10;13.10;99.90
41471;DHT22;27211;51.220;5.308;2024-01-30T10:44:37;13.10;99.90
41471;DHT22;27211;51.220;5.308;2024-01-30T10:47:06;13.00;99.90
41471;DHT22;27211;51.220;5.308;2024-01-30T10:49:33;12.90;99.90
41471;DHT22;27211;51.220;5.308;2024-01-30T10:51:59;13.10;99.90
41471;DHT22;27211;51.220;5.308;2024-01-30T10:54:24;13.00;99.90
41471;DHT22;27211;51.220;5.308;2024-01-30T10:56:51;13.20;99.90
41471;DHT22;27211;51.220;5.308;2024-01-30T10:59:16;13.00;99.90
41471;DHT22;27211;51.220;5.308;2024-01-30T11:01:42;13.20;99.90
41471;DHT22;27211;51.220;5.308;2024-01-30T11:04:08;13.20;99.90
41471;DHT22;27211;51.220;5.308;2024-01-30T11:06:40;13.20;99.90
41471;DHT22;27211;51.220;5.308;2024-01-30T11:09:09;13.20;99.90
41471;DHT22;27211;51.220;5.308;2024-01-30T11:11:50;13.30;99.90
41471;DHT22;27211;51.220;5.308;2024-01-30T11:14:16;13.50;99.90
41471;DHT22;27211;51.220;5.308;2024-01-30T11:16:41;13.60;99.90
41471;DHT22;27211;51.220;5.308;2024-01-30T11:19:10;13.40;99.90
41471;DHT22;27211;51.220;5.308;2024-01-30T11:21:42;13.40;99.90
41471;DHT22;27211;51.220;5.308;2024-01-30T11:24:08;13.30;99.90
41471;DHT22;27211;51.220;5.308;2024-01-30T11:26:34;13.20;99.90
41471;DHT22;27211;51.220;5.308;2024-01-30T11:29:02;13.20;99.90
41471;DHT22;27211;51.220;5.308;2024-01-30T11:31:28;13.30;99.90
41471;DHT22;27211;51.220;5.308;2024-01-30T11:33:54;13.30;99.90
41471;DHT22;27211;51.220;5.308;2024-01-30T11:36:21;13.20;99.90
41471;DHT22;27211;51.220;5.308;2024-01-30T11:38:48;13.10;99.90
41471;DHT22;27211;51.220;5.308;2024-01-30T11:41:14;13.30;99.90
41471;DHT22;27211;51.220;5.308;2024-01-30T11:43:40;13.30;99.90
41471;DHT22;27211;51.220;5.308;2024-01-30T11:46:06;13.30;99.90
41471;DHT22;27211;51.220;5.308;2024-01-30T11:48:32;13.30;99.90
41471;DHT22;27211;51.220;5.308;2024-01-30T11:50:58;13.40;99.90
41471;DHT22;27211;51.220;5.308;2024-01-30T11:53:24;13.50;99.90
41471;DHT22;27211;51.220;5.308;2024-01-30T11:55:50;13.40;99.90
41471;DHT22;27211;51.220;5.308;2024-01-30T11:58:15;13.40;99.90
41471;DHT22;27211;51.220;5.308;2024-01-30T12:00:41;13.40;99.90
41471;DHT22;27211;51.220;5.308;2024-01-30T12:03:07;13.50;99.90
41471;DHT22;27211;51.220;5.308;2024-01-30T12:05:32;13.50;99.90
41471;DHT22;27211;51.220;5.308;2024-01-30T12:07:58;13.50;99.90
41471;DHT22;27211;51.220;5.308;2024-01-30T12:10:24;13.50;99.90
41471;DHT22;27211;51.220;5.308;2024-01-30T12:12:50;13.30;99.90
41471;DHT22;27211;51.220;5.308;2024-01-30T12:15:16;13.20;99.90
41471;DHT22;27211;51.220;5.308;2024-01-30T12:17:41;12.90;99.90
41471;DHT22;27211;51.220;5.308;2024-01-30T12:22:36;12.80;99.90
41471;DHT22;27211;51.220;5.308;2024-01-30T12:25:07;12.70;99.90
41471;DHT22;27211;51.220;5.308;2024-01-30T12:27:33;12.60;99.90
41471;DHT22;27211;51.220;5.308;2024-01-30T12:29:59;12.70;99.90
41471;DHT22;27211;51.220;5.308;2024-01-30T12:32:25;12.70;99.90
41471;DHT22;27211;51.220;5.308;2024-01-30T12:34:50;12.90;99.90
41471;DHT22;27211;51.220;5.308;2024-01-30T12:37:20;13.00;99.90
41471;DHT22;27211;51.220;5.308;2024-01-30T12:39:48;13.00;99.90
41471;DHT22;27211;51.220;5.308;2024-01-30T12:42:13;12.90;99.90
41471;DHT22;27211;51.220;5.308;2024-01-30T12:44:39;12.80;99.90
41471;DHT22;27211;51.220;5.308;2024-01-30T12:47:05;12.80;99.90
41471;DHT22;27211;51.220;5.308;2024-01-30T12:49:31;12.70;99.90
41471;DHT22;27211;51.220;5.308;2024-01-30T12:51:56;12.50;99.90
41471;DHT22;27211;51.220;5.308;2024-01-30T12:54:23;12.50;99.90
41471;DHT22;27211;51.220;5.308;2024-01-30T12:56:49;12.60;99.90
41471;DHT22;27211;51.220;5.308;2024-01-30T12:59:15;12.80;99.90
41471;DHT22;27211;51.220;5.308;2024-01-30T13:01:40;13.00;99.90
41471;DHT22;27211;51.220;5.308;2024-01-30T13:04:06;13.40;99.90
41471;DHT22;27211;51.220;5.308;2024-01-30T13:06:32;14.00;99.90
41471;DHT22;27211;51.220;5.308;2024-01-30T13:08:57;14.80;99.90
41471;DHT22;27211;51.220;5.308;2024-01-30T13:11:23;15.10;99.90
41471;DHT22;27211;51.220;5.308;2024-01-30T13:13:50;14.90;99.90
41471;DHT22;27211;51.220;5.308;2024-01-30T13:16:18;14.50;99.90
41471;DHT22;27211;51.220;5.308;2024-01-30T13:18:44;14.00;99.90
41471;DHT22;27211;51.220;5.308;2024-01-30T13:21:09;13.70;99.90
41471;DHT22;27211;51.220;5.308;2024-01-30T13:23:35;13.30;99.90
41471;DHT22;27211;51.220;5.308;2024-01-30T13:26:01;13.30;99.90
41471;DHT22;27211;51.220;5.308;2024-01-30T13:28:26;13.10;99.90
41471;DHT22;27211;51.220;5.308;2024-01-30T13:30:52;12.90;99.90
41471;DHT22;27211;51.220;5.308;2024-01-30T13:33:17;12.70;99.90
41471;DHT22;27211;51.220;5.308;2024-01-30T13:35:43;12.60;99.90
41471;DHT22;27211;51.220;5.308;2024-01-30T13:38:09;12.70;99.90
41471;DHT22;27211;51.220;5.308;2024-01-30T13:40:35;13.00;99.90
41471;DHT22;27211;51.220;5.308;2024-01-30T13:43:01;13.80;99.90
41471;DHT22;27211;51.220;5.308;2024-01-30T13:45:27;15.00;99.90
41471;DHT22;27211;51.220;5.308;2024-01-30T13:47:52;15.10;99.90
41471;DHT22;27211;51.220;5.308;2024-01-30T13:50:18;15.20;99.90
41471;DHT22;27211;51.220;5.308;2024-01-30T13:52:44;14.70;99.90
41471;DHT22;27211;51.220;5.308;2024-01-30T13:55:09;14.00;99.90
41471;DHT22;27211;51.220;5.308;2024-01-30T13:57:35;13.60;99.90
41471;DHT22;27211;51.220;5.308;2024-01-30T14:00:02;13.20;99.90
41471;DHT22;27211;51.220;5.308;2024-01-30T14:02:30;13.10;99.90
41471;DHT22;27211;51.220;5.308;2024-01-30T14:04:56;13.00;99.90
41471;DHT22;27211;51.220;5.308;2024-01-30T14:07:21;12.80;99.90
41471;DHT22;27211;51.220;5.308;2024-01-30T14:09:47;12.70;99.90
41471;DHT22;27211;51.220;5.308;2024-01-30T14:12:13;12.50;99.90
41471;DHT22;27211;51.220;5.308;2024-01-30T14:14:39;12.50;99.90
41471;DHT22;27211;51.220;5.308;2024-01-30T14:17:05;12.50;99.90
41471;DHT22;27211;51.220;5.308;2024-01-30T14:19:32;12.40;99.90
41471;DHT22;27211;51.220;5.308;2024-01-30T14:21:58;12.50;99.90
41471;DHT22;27211;51.220;5.308;2024-01-30T14:24:23;12.60;99.90
41471;DHT22;27211;51.220;5.308;2024-01-30T14:26:49;12.50;99.90
41471;DHT22;27211;51.220;5.308;2024-01-30T14:29:15;12.40;99.90
41471;DHT22;27211;51.220;5.308;2024-01-30T14:31:40;12.30;99.90
41471;DHT22;27211;51.220;5.308;2024-01-30T14:34:06;12.30;99.90
41471;DHT22;27211;51.220;5.308;2024-01-30T14:36:31;12.30;99.90
41471;DHT22;27211;51.220;5.308;2024-01-30T14:38:57;12.10;99.90
41471;DHT22;27211;51.220;5.308;2024-01-30T14:41:23;12.00;99.90
41471;DHT22;27211;51.220;5.308;2024-01-30T14:43:48;12.00;99.90
41471;DHT22;27211;51.220;5.308;2024-01-30T14:46:14;11.90;99.90
41471;DHT22;27211;51.220;5.308;2024-01-30T14:48:40;11.80;99.90
41471;DHT22;27211;51.220;5.308;2024-01-30T14:51:05;11.80;99.90
41471;DHT22;27211;51.220;5.308;2024-01-30T14:53:31;11.60;99.90
41471;DHT22;27211;51.220;5.308;2024-01-30T14:55:56;11.40;99.90
41471;DHT22;27211;51.220;5.308;2024-01-30T14:58:22;11.40;99.90
41471;DHT22;27211;51.220;5.308;2024-01-30T15:00:48;11.40;99.90
41471;DHT22;27211;51.220;5.308;2024-01-30T15:03:13;11.50;99.90
41471;DHT22;27211;51.220;5.308;2024-01-30T15:05:39;11.50;99.90
41471;DHT22;27211;51.220;5.308;2024-01-30T15:08:04;11.50;99.90
41471;DHT22;27211;51.220;5.308;2024-01-30T15:10:30;11.20;99.90
41471;DHT22;27211;51.220;5.308;2024-01-30T15:12:55;11.30;99.90
41471;DHT22;27211;51.220;5.308;2024-01-30T15:15:21;11.20;99.90
41471;DHT22;27211;51.220;5.308;2024-01-30T15:17:47;11.20;99.90
41471;DHT22;27211;51.220;5.308;2024-01-30T15:20:12;11.20;99.90
41471;DHT22;27211;51.220;5.308;2024-01-30T15:22:38;11.10;99.90
41471;DHT22;27211;51.220;5.308;2024-01-30T15:25:05;11.20;99.90
41471;DHT22;27211;51.220;5.308;2024-01-30T15:27:31;11.20;99.90
41471;DHT22;27211;51.220;5.308;2024-01-30T15:29:56;11.20;99.90
41471;DHT22;27211;51.220;5.308;2024-01-30T15:32:22;11.10;99.90
41471;DHT22;27211;51.220;5.308;2024-01-30T15:34:48;11.00;99.90
41471;DHT22;27211;51.220;5.308;2024-01-30T15:37:13;10.80;99.90
41471;DHT22;27211;51.220;5.308;2024-01-30T15:39:39;10.80;99.90
41471;DHT22;27211;51.220;5.308;2024-01-30T15:42:05;10.90;99.90
41471;DHT22;27211;51.220;5.308;2024-01-30T15:44:30;10.90;99.90
41471;DHT22;27211;51.220;5.308;2024-01-30T15:46:57;10.90;99.90
41471;DHT22;27211;51.220;5.308;2024-01-30T15:49:22;10.80;99.90
41471;DHT22;27211;51.220;5.308;2024-01-30T15:51:48;10.80;99.90
41471;DHT22;27211;51.220;5.308;2024-01-30T15:54:14;10.70;99.90
41471;DHT22;27211;51.220;5.308;2024-01-30T15:56:39;10.80;99.90
41471;DHT22;27211;51.220;5.308;2024-01-30T15:59:05;10.70;99.90
41471;DHT22;27211;51.220;5.308;2024-01-30T16:01:31;10.70;99.90
41471;DHT22;27211;51.220;5.308;2024-01-30T16:03:56;10.70;99.90
41471;DHT22;27211;51.220;5.308;2024-01-30T16:06:22;10.60;99.90
41471;DHT22;27211;51.220;5.308;2024-01-30T16:08:47;10.50;99.90
41471;DHT22;27211;51.220;5.308;2024-01-30T16:11:14;10.40;99.90
41471;DHT22;27211;51.220;5.308;2024-01-30T16:13:41;10.50;99.90
41471;DHT22;27211;51.220;5.308;2024-01-30T16:16:07;10.60;99.90
41471;DHT22;27211;51.220;5.308;2024-01-30T16:18:33;10.70;99.90
41471;DHT22;27211;51.220;5.308;2024-01-30T16:20:59;10.80;99.90
41471;DHT22;27211;51.220;5.308;2024-01-30T16:23:25;10.70;99.90
41471;DHT22;27211;51.220;5.308;2024-01-30T16:25:53;10.70;99.90
41471;DHT22;27211;51.220;5.308;2024-01-30T16:28:18;10.80;99.90
41471;DHT22;27211;51.220;5.308;2024-01-30T16:30:44;10.60;99.90
41471;DHT22;27211;51.220;5.308;2024-01-30T16:33:10;10.50;99.90
41471;DHT22;27211;51.220;5.308;2024-01-30T16:35:35;10.30;99.90
41471;DHT22;27211;51.220;5.308;2024-01-30T16:38:01;10.20;99.90
41471;DHT22;27211;51.220;5.308;2024-01-30T16:40:27;10.10;99.90
41471;DHT22;27211;51.220;5.308;2024-01-30T16:42:52;10.10;99.90
41471;DHT22;27211;51.220;5.308;2024-01-30T16:45:18;10.10;99.90
41471;DHT22;27211;51.220;5.308;2024-01-30T16:47:44;10.10;99.90
41471;DHT22;27211;51.220;5.308;2024-01-30T16:50:09;10.20;99.90
41471;DHT22;27211;51.220;5.308;2024-01-30T16:52:35;10.30;99.90
41471;DHT22;27211;51.220;5.308;2024-01-30T16:55:01;10.20;99.90
41471;DHT22;27211;51.220;5.308;2024-01-30T16:57:26;10.20;99.90
41471;DHT22;27211;51.220;5.308;2024-01-30T16:59:52;10.20;99.90
41471;DHT22;27211;51.220;5.308;2024-01-30T17:02:17;10.30;99.90
41471;DHT22;27211;51.220;5.308;2024-01-30T17:04:46;10.10;99.90
41471;DHT22;27211;51.220;5.308;2024-01-30T17:07:12;10.10;99.90
41471;DHT22;27211;51.220;5.308;2024-01-30T17:09:37;9.90;99.90
41471;DHT22;27211;51.220;5.308;2024-01-30T17:12:03;9.90;99.90
41471;DHT22;27211;51.220;5.308;2024-01-30T17:14:29;10.00;99.90
41471;DHT22;27211;51.220;5.308;2024-01-30T17:16:55;9.80;99.90
41471;DHT22;27211;51.220;5.308;2024-01-30T17:19:20;10.00;99.90
41471;DHT22;27211;51.220;5.308;2024-01-30T17:21:46;9.80;99.90
41471;DHT22;27211;51.220;5.308;2024-01-30T17:24:12;9.70;99.90
41471;DHT22;27211;51.220;5.308;2024-01-30T17:26:41;9.70;99.90
41471;DHT22;27211;51.220;5.308;2024-01-30T17:29:06;9.70;99.90
41471;DHT22;27211;51.220;5.308;2024-01-30T17:31:32;9.60;99.90
41471;DHT22;27211;51.220;5.308;2024-01-30T17:33:57;9.70;99.90
41471;DHT22;27211;51.220;5.308;2024-01-30T17:36:23;9.70;99.90
41471;DHT22;27211;51.220;5.308;2024-01-30T17:38:50;9.70;99.90
41471;DHT22;27211;51.220;5.308;2024-01-30T17:41:16;9.70;99.90
41471;DHT22;27211;51.220;5.308;2024-01-30T17:43:41;9.80;99.90
41471;DHT22;27211;51.220;5.308;2024-01-30T17:46:07;9.80;99.90
41471;DHT22;27211;51.220;5.308;2024-01-30T17:48:34;9.70;99.90
41471;DHT22;27211;51.220;5.308;2024-01-30T17:50:59;9.70;99.90
41471;DHT22;27211;51.220;5.308;2024-01-30T17:53:27;9.60;99.90
41471;DHT22;27211;51.220;5.308;2024-01-30T17:55:52;9.50;99.90
41471;DHT22;27211;51.220;5.308;2024-01-30T17:58:18;9.50;99.90
41471;DHT22;27211;51.220;5.308;2024-01-30T18:00:43;9.50;99.90
41471;DHT22;27211;51.220;5.308;2024-01-30T18:03:09;9.40;99.90
41471;DHT22;27211;51.220;5.308;2024-01-30T18:05:34;9.60;99.90
41471;DHT22;27211;51.220;5.308;2024-01-30T18:08:00;9.60;99.90
41471;DHT22;27211;51.220;5.308;2024-01-30T18:10:25;9.60;99.90
41471;DHT22;27211;51.220;5.308;2024-01-30T18:12:51;9.50;99.90
41471;DHT22;27211;51.220;5.308;2024-01-30T18:15:19;9.60;99.90
41471;DHT22;27211;51.220;5.308;2024-01-30T18:17:45;9.80;99.90
41471;DHT22;27211;51.220;5.308;2024-01-30T18:20:10;9.80;99.90
41471;DHT22;27211;51.220;5.308;2024-01-30T18:22:36;9.90;99.90
41471;DHT22;27211;51.220;5.308;2024-01-30T18:25:05;9.90;99.90
41471;DHT22;27211;51.220;5.308;2024-01-30T18:27:31;9.80;99.90
41471;DHT22;27211;51.220;5.308;2024-01-30T18:29:57;9.60;99.90
41471;DHT22;27211;51.220;5.308;2024-01-30T18:32:22;9.80;99.90
41471;DHT22;27211;51.220;5.308;2024-01-30T18:34:48;9.80;99.90
41471;DHT22;27211;51.220;5.308;2024-01-30T18:37:14;9.70;99.90
41471;DHT22;27211;51.220;5.308;2024-01-30T18:39:39;9.80;99.90
41471;DHT22;27211;51.220;5.308;2024-01-30T18:42:08;10.00;99.90
41471;DHT22;27211;51.220;5.308;2024-01-30T18:44:33;9.90;99.90
41471;DHT22;27211;51.220;5.308;2024-01-30T18:46:59;9.80;99.90
41471;DHT22;27211;51.220;5.308;2024-01-30T18:49:25;9.70;99.90
41471;DHT22;27211;51.220;5.308;2024-01-30T18:51:50;9.60;99.90
41471;DHT22;27211;51.220;5.308;2024-01-30T18:54:17;9.60;99.90
41471;DHT22;27211;51.220;5.308;2024-01-30T18:56:43;9.60;99.90
41471;DHT22;27211;51.220;5.308;2024-01-30T18:59:09;9.70;99.90
41471;DHT22;27211;51.220;5.308;2024-01-30T19:01:35;9.70;99.90
41471;DHT22;27211;51.220;5.308;2024-01-30T19:04:04;9.70;99.90
41471;DHT22;27211;51.220;5.308;2024-01-30T19:06:30;9.60;99.90
41471;DHT22;27211;51.220;5.308;2024-01-30T19:08:55;9.60;99.90
41471;DHT22;27211;51.220;5.308;2024-01-30T19:11:21;9.70;99.90
41471;DHT22;27211;51.220;5.308;2024-01-30T19:13:46;9.80;99.90
41471;DHT22;27211;51.220;5.308;2024-01-30T19:16:12;9.80;99.90
41471;DHT22;27211;51.220;5.308;2024-01-30T19:18:38;9.70;99.90
41471;DHT22;27211;51.220;5.308;2024-01-30T19:21:04;9.70;99.90
41471;DHT22;27211;51.220;5.308;2024-01-30T19:23:29;9.60;99.90
41471;DHT22;27211;51.220;5.308;2024-01-30T19:25:55;9.70;99.90
41471;DHT22;27211;51.220;5.308;2024-01-30T19:28:20;9.70;99.90
41471;DHT22;27211;51.220;5.308;2024-01-30T19:30:46;9.50;99.90
41471;DHT22;27211;51.220;5.308;2024-01-30T19:33:11;9.40;99.90
41471;DHT22;27211;51.220;5.308;2024-01-30T19:35:37;9.40;99.90
41471;DHT22;27211;51.220;5.308;2024-01-30T19:38:03;9.40;99.90
41471;DHT22;27211;51.220;5.308;2024-01-30T19:40:29;9.70;99.90
41471;DHT22;27211;51.220;5.308;2024-01-30T19:42:55;9.50;99.90
41471;DHT22;27211;51.220;5.308;2024-01-30T19:45:20;9.40;99.90
41471;DHT22;27211;51.220;5.308;2024-01-30T19:47:46;9.40;99.90
41471;DHT22;27211;51.220;5.308;2024-01-30T19:50:12;9.50;99.90
41471;DHT22;27211;51.220;5.308;2024-01-30T19:52:41;9.60;99.90
41471;DHT22;27211;51.220;5.308;2024-01-30T19:55:08;9.50;99.90
41471;DHT22;27211;51.220;5.308;2024-01-30T19:57:34;9.30;99.90
41471;DHT22;27211;51.220;5.308;2024-01-30T19:59:59;9.40;99.90
41471;DHT22;27211;51.220;5.308;2024-01-30T20:02:26;9.40;99.90
41471;DHT22;27211;51.220;5.308;2024-01-30T20:04:53;9.40;99.90
41471;DHT22;27211;51.220;5.308;2024-01-30T20:07:18;9.20;99.90
41471;DHT22;27211;51.220;5.308;2024-01-30T20:09:44;9.30;99.90
41471;DHT22;27211;51.220;5.308;2024-01-30T20:12:09;9.30;99.90
41471;DHT22;27211;51.220;5.308;2024-01-30T20:14:35;9.20;99.90
41471;DHT22;27211;51.220;5.308;2024-01-30T20:17:00;9.30;99.90
41471;DHT22;27211;51.220;5.308;2024-01-30T20:19:26;9.30;99.90
41471;DHT22;27211;51.220;5.308;2024-01-30T20:21:52;9.30;99.90
41471;DHT22;27211;51.220;5.308;2024-01-30T20:24:17;9.40;99.90
41471;DHT22;27211;51.220;5.308;2024-01-30T20:26:43;9.40;99.90
41471;DHT22;27211;51.220;5.308;2024-01-30T20:29:08;9.30;99.90
41471;DHT22;27211;51.220;5.308;2024-01-30T20:31:34;9.20;99.90
41471;DHT22;27211;51.220;5.308;2024-01-30T20:34:01;9.30;99.90
41471;DHT22;27211;51.220;5.308;2024-01-30T20:36:27;9.30;99.90
41471;DHT22;27211;51.220;5.308;2024-01-30T20:38:52;9.10;99.90
41471;DHT22;27211;51.220;5.308;2024-01-30T20:41:18;9.10;99.90
41471;DHT22;27211;51.220;5.308;2024-01-30T20:43:43;9.10;99.90
41471;DHT22;27211;51.220;5.308;2024-01-30T20:46:10;8.90;99.90
41471;DHT22;27211;51.220;5.308;2024-01-30T20:48:39;8.90;99.90
41471;DHT22;27211;51.220;5.308;2024-01-30T20:51:06;9.10;99.90
41471;DHT22;27211;51.220;5.308;2024-01-30T20:53:31;9.10;99.90
41471;DHT22;27211;51.220;5.308;2024-01-30T20:55:57;9.40;99.90
41471;DHT22;27211;51.220;5.308;2024-01-30T20:58:23;9.30;99.90
41471;DHT22;27211;51.220;5.308;2024-01-30T21:00:49;9.30;99.90
41471;DHT22;27211;51.220;5.308;2024-01-30T21:03:14;9.20;99.90
41471;DHT22;27211;51.220;5.308;2024-01-30T21:05:40;9.40;99.90
41471;DHT22;27211;51.220;5.308;2024-01-30T21:08:07;9.30;99.90
41471;DHT22;27211;51.220;5.308;2024-01-30T21:10:33;9.20;99.90
41471;DHT22;27211;51.220;5.308;2024-01-30T21:12:59;9.20;99.90
41471;DHT22;27211;51.220;5.308;2024-01-30T21:15:24;9.40;99.90
41471;DHT22;27211;51.220;5.308;2024-01-30T21:17:50;9.30;99.90
41471;DHT22;27211;51.220;5.308;2024-01-30T21:20:16;9.30;99.90
41471;DHT22;27211;51.220;5.308;2024-01-30T21:22:41;9.40;99.90
41471;DHT22;27211;51.220;5.308;2024-01-30T21:25:07;9.20;99.90
41471;DHT22;27211;51.220;5.308;2024-01-30T21:27:33;9.20;99.90
41471;DHT22;27211;51.220;5.308;2024-01-30T21:29:58;9.10;99.90
41471;DHT22;27211;51.220;5.308;2024-01-30T21:32:24;9.10;99.90
41471;DHT22;27211;51.220;5.308;2024-01-30T21:34:51;9.00;99.90
41471;DHT22;27211;51.220;5.308;2024-01-30T21:37:16;9.20;99.90
41471;DHT22;27211;51.220;5.308;2024-01-30T21:39:42;9.20;99.90
41471;DHT22;27211;51.220;5.308;2024-01-30T21:42:07;9.20;99.90
41471;DHT22;27211;51.220;5.308;2024-01-30T21:44:33;9.20;99.90
41471;DHT22;27211;51.220;5.308;2024-01-30T21:46:58;9.40;99.90
41471;DHT22;27211;51.220;5.308;2024-01-30T21:49:24;9.30;99.90
41471;DHT22;27211;51.220;5.308;2024-01-30T21:51:50;9.30;99.90
41471;DHT22;27211;51.220;5.308;2024-01-30T21:54:16;9.20;99.90
41471;DHT22;27211;51.220;5.308;2024-01-30T21:56:41;9.30;99.90
41471;DHT22;27211;51.220;5.308;2024-01-30T21:59:07;9.20;99.90
41471;DHT22;27211;51.220;5.308;2024-01-30T22:01:32;9.10;99.90
41471;DHT22;27211;51.220;5.308;2024-01-30T22:03:58;9.30;99.90
41471;DHT22;27211;51.220;5.308;2024-01-30T22:06:27;9.30;99.90
41471;DHT22;27211;51.220;5.308;2024-01-30T22:08:53;9.30;99.90
41471;DHT22;27211;51.220;5.308;2024-01-30T22:11:19;9.30;99.90
41471;DHT22;27211;51.220;5.308;2024-01-30T22:13:44;9.10;99.90
41471;DHT22;27211;51.220;5.308;2024-01-30T22:16:10;9.10;99.90
41471;DHT22;27211;51.220;5.308;2024-01-30T22:18:35;9.10;99.90
41471;DHT22;27211;51.220;5.308;2024-01-30T22:21:01;9.00;99.90
41471;DHT22;27211;51.220;5.308;2024-01-30T22:23:33;8.90;99.90
41471;DHT22;27211;51.220;5.308;2024-01-30T22:25:58;8.80;99.90
41471;DHT22;27211;51.220;5.308;2024-01-30T22:28:24;8.90;99.90
41471;DHT22;27211;51.220;5.308;2024-01-30T22:30:49;8.80;99.90
41471;DHT22;27211;51.220;5.308;2024-01-30T22:33:15;8.80;99.90
41471;DHT22;27211;51.220;5.308;2024-01-30T22:35:40;8.90;99.90
41471;DHT22;27211;51.220;5.308;2024-01-30T22:38:06;9.00;99.90
41471;DHT22;27211;51.220;5.308;2024-01-30T22:40:33;9.10;99.90
41471;DHT22;27211;51.220;5.308;2024-01-30T22:42:58;9.00;99.90
41471;DHT22;27211;51.220;5.308;2024-01-30T22:45:24;8.90;99.90
41471;DHT22;27211;51.220;5.308;2024-01-30T22:47:50;8.90;99.90
41471;DHT22;27211;51.220;5.308;2024-01-30T22:50:15;8.90;99.90
41471;DHT22;27211;51.220;5.308;2024-01-30T22:52:41;8.90;99.90
41471;DHT22;27211;51.220;5.308;2024-01-30T22:55:06;8.90;99.90
41471;DHT22;27211;51.220;5.308;2024-01-30T22:57:32;9.20;99.90
41471;DHT22;27211;51.220;5.308;2024-01-30T22:59:58;9.00;99.90
41471;DHT22;27211;51.220;5.308;2024-01-30T23:02:24;8.80;99.90
41471;DHT22;27211;51.220;5.308;2024-01-30T23:04:50;8.70;99.90
41471;DHT22;27211;51.220;5.308;2024-01-30T23:07:16;8.80;99.90
41471;DHT22;27211;51.220;5.308;2024-01-30T23:09:42;8.90;99.90
41471;DHT22;27211;51.220;5.308;2024-01-30T23:12:08;8.90;99.90
41471;DHT22;27211;51.220;5.308;2024-01-30T23:14:33;9.00;99.90
41471;DHT22;27211;51.220;5.308;2024-01-30T23:16:59;9.00;99.90
41471;DHT22;27211;51.220;5.308;2024-01-30T23:19:25;9.10;99.90
41471;DHT22;27211;51.220;5.308;2024-01-30T23:21:50;9.00;99.90
41471;DHT22;27211;51.220;5.308;2024-01-30T23:24:16;9.00;99.90
41471;DHT22;27211;51.220;5.308;2024-01-30T23:26:41;8.90;99.90
41471;DHT22;27211;51.220;5.308;2024-01-30T23:29:07;9.00;99.90
41471;DHT22;27211;51.220;5.308;2024-01-30T23:31:33;8.80;99.90
41471;DHT22;27211;51.220;5.308;2024-01-30T23:33:58;9.00;99.90
41471;DHT22;27211;51.220;5.308;2024-01-30T23:36:24;9.20;99.90
41471;DHT22;27211;51.220;5.308;2024-01-30T23:38:49;9.30;99.90
41471;DHT22;27211;51.220;5.308;2024-01-30T23:41:15;9.20;99.90